sensor_id;sensor_type;location;lat;lon;timestamp;P1;durP1;ratioP1;P2;durP2;ratioP2
20026;SDS011;10174;42.688;23.344;2023-04-24T00:02:13;20.65;;;9.77;;
20026;SDS011;10174;42.688;23.344;2023-04-24T00:04:39;21.17;;;9.10;;
20026;SDS011;10174;42.688;23.344;2023-04-24T00:07:05;24.52;;;9.85;;
20026;SDS011;10174;42.688;23.344;2023-04-24T00:09:31;20.48;;;9.65;;
20026;SDS011;10174;42.688;23.344;2023-04-24T00:11:57;18.67;;;8.10;;
20026;SDS011;10174;42.688;23.344;2023-04-24T00:14:23;19.60;;;8.82;;
20026;SDS011;10174;42.688;23.344;2023-04-24T00:16:48;18.48;;;8.50;;
20026;SDS011;10174;42.688;23.344;2023-04-24T00:19:14;17.42;;;8.27;;
20026;SDS011;10174;42.688;23.344;2023-04-24T00:21:39;22.13;;;8.73;;
20026;SDS011;10174;42.688;23.344;2023-04-24T00:24:05;22.98;;;8.05;;
20026;SDS011;10174;42.688;23.344;2023-04-24T00:26:31;20.90;;;8.63;;
20026;SDS011;10174;42.688;23.344;2023-04-24T00:28:56;18.90;;;8.57;;
20026;SDS011;10174;42.688;23.344;2023-04-24T00:31:22;19.90;;;9.00;;
20026;SDS011;10174;42.688;23.344;2023-04-24T00:33:47;17.88;;;7.80;;
20026;SDS011;10174;42.688;23.344;2023-04-24T00:38:38;17.52;;;8.32;;
20026;SDS011;10174;42.688;23.344;2023-04-24T00:41:03;20.30;;;7.43;;
20026;SDS011;10174;42.688;23.344;2023-04-24T00:43:29;15.90;;;6.95;;
20026;SDS011;10174;42.688;23.344;2023-04-24T00:45:55;16.92;;;7.97;;
20026;SDS011;10174;42.688;23.344;2023-04-24T00:48:20;16.70;;;7.45;;
20026;SDS011;10174;42.688;23.344;2023-04-24T00:50:46;23.55;;;9.07;;
20026;SDS011;10174;42.688;23.344;2023-04-24T00:53:11;19.42;;;9.38;;
20026;SDS011;10174;42.688;23.344;2023-04-24T00:55:37;20.65;;;8.40;;
20026;SDS011;10174;42.688;23.344;2023-04-24T00:58:02;13.93;;;7.68;;
20026;SDS011;10174;42.688;23.344;2023-04-24T01:00:28;17.95;;;7.97;;
20026;SDS011;10174;42.688;23.344;2023-04-24T01:02:53;15.68;;;8.57;;
20026;SDS011;10174;42.688;23.344;2023-04-24T01:05:20;26.63;;;8.70;;
20026;SDS011;10174;42.688;23.344;2023-04-24T01:07:46;18.05;;;7.75;;
20026;SDS011;10174;42.688;23.344;2023-04-24T01:10:13;17.08;;;8.75;;
20026;SDS011;10174;42.688;23.344;2023-04-24T01:12:39;23.70;;;7.90;;
20026;SDS011;10174;42.688;23.344;2023-04-24T01:15:05;22.95;;;9.00;;
20026;SDS011;10174;42.688;23.344;2023-04-24T01:17:31;13.93;;;8.95;;
20026;SDS011;10174;42.688;23.344;2023-04-24T01:19:57;21.80;;;8.82;;
20026;SDS011;10174;42.688;23.344;2023-04-24T01:22:24;17.52;;;9.15;;
20026;SDS011;10174;42.688;23.344;2023-04-24T01:24:50;15.68;;;8.50;;
20026;SDS011;10174;42.688;23.344;2023-04-24T01:27:16;16.88;;;7.85;;
20026;SDS011;10174;42.688;23.344;2023-04-24T01:29:42;14.52;;;8.30;;
20026;SDS011;10174;42.688;23.344;2023-04-24T01:32:07;19.75;;;7.63;;
20026;SDS011;10174;42.688;23.344;2023-04-24T01:34:33;13.73;;;7.18;;
20026;SDS011;10174;42.688;23.344;2023-04-24T01:36:59;14.90;;;7.32;;
20026;SDS011;10174;42.688;23.344;2023-04-24T01:39:25;18.17;;;7.30;;
20026;SDS011;10174;42.688;23.344;2023-04-24T01:41:53;12.02;;;6.82;;
20026;SDS011;10174;42.688;23.344;2023-04-24T01:44:19;15.43;;;7.50;;
20026;SDS011;10174;42.688;23.344;2023-04-24T01:46:45;12.88;;;7.20;;
20026;SDS011;10174;42.688;23.344;2023-04-24T01:49:11;16.77;;;7.55;;
20026;SDS011;10174;42.688;23.344;2023-04-24T01:51:36;12.32;;;7.32;;
20026;SDS011;10174;42.688;23.344;2023-04-24T01:54:02;15.88;;;8.35;;
20026;SDS011;10174;42.688;23.344;2023-04-24T01:56:28;12.80;;;8.00;;
20026;SDS011;10174;42.688;23.344;2023-04-24T01:58:55;14.60;;;8.30;;
20026;SDS011;10174;42.688;23.344;2023-04-24T02:01:21;18.58;;;7.97;;
20026;SDS011;10174;42.688;23.344;2023-04-24T02:03:48;24.35;;;8.60;;
20026;SDS011;10174;42.688;23.344;2023-04-24T02:06:13;16.02;;;8.20;;
20026;SDS011;10174;42.688;23.344;2023-04-24T02:08:39;24.45;;;8.50;;
20026;SDS011;10174;42.688;23.344;2023-04-24T02:11:04;20.25;;;8.98;;
20026;SDS011;10174;42.688;23.344;2023-04-24T02:13:30;18.38;;;8.20;;
20026;SDS011;10174;42.688;23.344;2023-04-24T02:15:57;22.10;;;9.48;;
20026;SDS011;10174;42.688;23.344;2023-04-24T02:18:23;21.52;;;9.35;;
20026;SDS011;10174;42.688;23.344;2023-04-24T02:20:49;20.08;;;8.60;;
20026;SDS011;10174;42.688;23.344;2023-04-24T02:23:15;24.10;;;9.30;;
20026;SDS011;10174;42.688;23.344;2023-04-24T02:25:40;16.92;;;8.65;;
20026;SDS011;10174;42.688;23.344;2023-04-24T02:28:06;18.92;;;8.95;;
20026;SDS011;10174;42.688;23.344;2023-04-24T02:30:31;15.60;;;8.80;;
20026;SDS011;10174;42.688;23.344;2023-04-24T02:32:57;24.20;;;10.05;;
20026;SDS011;10174;42.688;23.344;2023-04-24T02:35:22;17.80;;;9.00;;
20026;SDS011;10174;42.688;23.344;2023-04-24T02:37:47;21.75;;;9.63;;
20026;SDS011;10174;42.688;23.344;2023-04-24T02:40:13;20.60;;;9.48;;
20026;SDS011;10174;42.688;23.344;2023-04-24T02:42:38;24.38;;;10.18;;
20026;SDS011;10174;42.688;23.344;2023-04-24T02:45:04;25.55;;;9.40;;
20026;SDS011;10174;42.688;23.344;2023-04-24T02:47:30;20.98;;;10.15;;
20026;SDS011;10174;42.688;23.344;2023-04-24T02:49:55;21.23;;;10.23;;
20026;SDS011;10174;42.688;23.344;2023-04-24T02:52:21;26.55;;;10.85;;
20026;SDS011;10174;42.688;23.344;2023-04-24T02:54:46;22.92;;;10.13;;
20026;SDS011;10174;42.688;23.344;2023-04-24T02:57:11;27.27;;;11.05;;
20026;SDS011;10174;42.688;23.344;2023-04-24T02:59:37;28.10;;;11.02;;
20026;SDS011;10174;42.688;23.344;2023-04-24T03:02:02;33.90;;;10.35;;
20026;SDS011;10174;42.688;23.344;2023-04-24T03:04:28;25.92;;;10.93;;
20026;SDS011;10174;42.688;23.344;2023-04-24T03:06:53;19.85;;;10.43;;
20026;SDS011;10174;42.688;23.344;2023-04-24T03:09:20;32.20;;;10.63;;
20026;SDS011;10174;42.688;23.344;2023-04-24T03:11:46;23.58;;;10.73;;
20026;SDS011;10174;42.688;23.344;2023-04-24T03:14:11;19.33;;;10.77;;
20026;SDS011;10174;42.688;23.344;2023-04-24T03:16:37;23.02;;;10.57;;
20026;SDS011;10174;42.688;23.344;2023-04-24T03:19:02;21.17;;;10.57;;
20026;SDS011;10174;42.688;23.344;2023-04-24T03:21:27;23.48;;;12.10;;
20026;SDS011;10174;42.688;23.344;2023-04-24T03:23:53;23.25;;;11.23;;
20026;SDS011;10174;42.688;23.344;2023-04-24T03:26:18;25.50;;;11.25;;
20026;SDS011;10174;42.688;23.344;2023-04-24T03:28:44;29.70;;;11.70;;
20026;SDS011;10174;42.688;23.344;2023-04-24T03:31:10;25.45;;;11.63;;
20026;SDS011;10174;42.688;23.344;2023-04-24T03:33:35;27.50;;;11.55;;
20026;SDS011;10174;42.688;23.344;2023-04-24T03:36:01;24.75;;;11.48;;
20026;SDS011;10174;42.688;23.344;2023-04-24T03:38:26;26.42;;;11.80;;
20026;SDS011;10174;42.688;23.344;2023-04-24T03:40:52;29.17;;;13.00;;
20026;SDS011;10174;42.688;23.344;2023-04-24T03:43:17;20.95;;;11.25;;
20026;SDS011;10174;42.688;23.344;2023-04-24T03:45:42;27.95;;;11.95;;
20026;SDS011;10174;42.688;23.344;2023-04-24T03:48:08;33.78;;;12.48;;
20026;SDS011;10174;42.688;23.344;2023-04-24T03:50:33;36.03;;;12.60;;
20026;SDS011;10174;42.688;23.344;2023-04-24T03:52:59;29.00;;;13.23;;
20026;SDS011;10174;42.688;23.344;2023-04-24T03:55:24;29.95;;;12.57;;
20026;SDS011;10174;42.688;23.344;2023-04-24T03:57:49;33.30;;;12.60;;
20026;SDS011;10174;42.688;23.344;2023-04-24T04:00:15;35.63;;;13.00;;
20026;SDS011;10174;42.688;23.344;2023-04-24T04:02:41;36.83;;;12.70;;
20026;SDS011;10174;42.688;23.344;2023-04-24T04:05:06;27.73;;;12.13;;
20026;SDS011;10174;42.688;23.344;2023-04-24T04:07:33;27.65;;;12.18;;
20026;SDS011;10174;42.688;23.344;2023-04-24T04:09:58;28.02;;;12.40;;
20026;SDS011;10174;42.688;23.344;2023-04-24T04:12:24;30.40;;;12.25;;
20026;SDS011;10174;42.688;23.344;2023-04-24T04:14:49;37.47;;;13.93;;
20026;SDS011;10174;42.688;23.344;2023-04-24T04:17:14;26.92;;;12.23;;
20026;SDS011;10174;42.688;23.344;2023-04-24T04:19:40;33.70;;;12.32;;
20026;SDS011;10174;42.688;23.344;2023-04-24T04:22:05;22.55;;;10.13;;
20026;SDS011;10174;42.688;23.344;2023-04-24T04:24:33;33.50;;;12.35;;
20026;SDS011;10174;42.688;23.344;2023-04-24T04:26:58;21.52;;;10.00;;
20026;SDS011;10174;42.688;23.344;2023-04-24T04:29:25;18.23;;;8.30;;
20026;SDS011;10174;42.688;23.344;2023-04-24T04:31:50;19.05;;;8.10;;
20026;SDS011;10174;42.688;23.344;2023-04-24T04:34:16;16.45;;;7.90;;
20026;SDS011;10174;42.688;23.344;2023-04-24T04:36:42;14.40;;;7.13;;
20026;SDS011;10174;42.688;23.344;2023-04-24T04:39:08;16.05;;;7.32;;
20026;SDS011;10174;42.688;23.344;2023-04-24T04:41:34;18.13;;;7.65;;
20026;SDS011;10174;42.688;23.344;2023-04-24T04:44:05;19.75;;;8.15;;
20026;SDS011;10174;42.688;23.344;2023-04-24T04:46:31;16.88;;;7.53;;
20026;SDS011;10174;42.688;23.344;2023-04-24T04:49:00;20.27;;;8.38;;
20026;SDS011;10174;42.688;23.344;2023-04-24T04:51:26;13.40;;;6.95;;
20026;SDS011;10174;42.688;23.344;2023-04-24T04:53:52;22.33;;;7.63;;
20026;SDS011;10174;42.688;23.344;2023-04-24T04:56:17;21.15;;;7.53;;
20026;SDS011;10174;42.688;23.344;2023-04-24T04:58:43;12.73;;;7.15;;
20026;SDS011;10174;42.688;23.344;2023-04-24T05:01:08;24.25;;;7.68;;
20026;SDS011;10174;42.688;23.344;2023-04-24T05:03:34;21.67;;;8.70;;
20026;SDS011;10174;42.688;23.344;2023-04-24T05:05:59;15.63;;;8.25;;
20026;SDS011;10174;42.688;23.344;2023-04-24T05:08:25;19.70;;;8.35;;
20026;SDS011;10174;42.688;23.344;2023-04-24T05:10:50;18.33;;;9.40;;
20026;SDS011;10174;42.688;23.344;2023-04-24T05:13:15;22.58;;;10.43;;
20026;SDS011;10174;42.688;23.344;2023-04-24T05:15:41;24.50;;;12.48;;
20026;SDS011;10174;42.688;23.344;2023-04-24T05:18:06;28.27;;;11.10;;
20026;SDS011;10174;42.688;23.344;2023-04-24T05:20:32;24.05;;;11.13;;
20026;SDS011;10174;42.688;23.344;2023-04-24T05:22:57;30.27;;;11.15;;
20026;SDS011;10174;42.688;23.344;2023-04-24T05:25:22;24.83;;;11.55;;
20026;SDS011;10174;42.688;23.344;2023-04-24T05:27:48;37.55;;;15.88;;
20026;SDS011;10174;42.688;23.344;2023-04-24T05:30:13;111.85;;;55.58;;
20026;SDS011;10174;42.688;23.344;2023-04-24T05:32:39;64.70;;;29.70;;
20026;SDS011;10174;42.688;23.344;2023-04-24T05:35:04;58.08;;;29.40;;
20026;SDS011;10174;42.688;23.344;2023-04-24T05:37:30;34.28;;;14.52;;
20026;SDS011;10174;42.688;23.344;2023-04-24T05:39:56;37.60;;;14.25;;
20026;SDS011;10174;42.688;23.344;2023-04-24T05:42:21;26.13;;;12.73;;
20026;SDS011;10174;42.688;23.344;2023-04-24T05:44:46;37.80;;;16.60;;
20026;SDS011;10174;42.688;23.344;2023-04-24T05:47:12;25.25;;;11.80;;
20026;SDS011;10174;42.688;23.344;2023-04-24T05:49:37;32.17;;;11.27;;
20026;SDS011;10174;42.688;23.344;2023-04-24T05:52:03;39.35;;;14.38;;
20026;SDS011;10174;42.688;23.344;2023-04-24T05:54:30;26.33;;;14.95;;
20026;SDS011;10174;42.688;23.344;2023-04-24T05:56:55;30.15;;;12.15;;
20026;SDS011;10174;42.688;23.344;2023-04-24T05:59:21;33.15;;;12.60;;
20026;SDS011;10174;42.688;23.344;2023-04-24T06:01:46;31.30;;;12.27;;
20026;SDS011;10174;42.688;23.344;2023-04-24T06:04:12;27.88;;;12.25;;
20026;SDS011;10174;42.688;23.344;2023-04-24T06:06:38;25.65;;;12.25;;
20026;SDS011;10174;42.688;23.344;2023-04-24T06:09:04;25.45;;;12.45;;
20026;SDS011;10174;42.688;23.344;2023-04-24T06:11:30;23.23;;;12.15;;
20026;SDS011;10174;42.688;23.344;2023-04-24T06:13:55;27.25;;;12.73;;
20026;SDS011;10174;42.688;23.344;2023-04-24T06:16:21;28.55;;;12.90;;
20026;SDS011;10174;42.688;23.344;2023-04-24T06:18:46;47.17;;;16.13;;
20026;SDS011;10174;42.688;23.344;2023-04-24T06:21:12;23.20;;;12.38;;
20026;SDS011;10174;42.688;23.344;2023-04-24T06:23:38;24.25;;;13.25;;
20026;SDS011;10174;42.688;23.344;2023-04-24T06:26:03;33.38;;;14.30;;
20026;SDS011;10174;42.688;23.344;2023-04-24T06:28:29;26.92;;;13.40;;
20026;SDS011;10174;42.688;23.344;2023-04-24T06:30:55;29.73;;;13.68;;
20026;SDS011;10174;42.688;23.344;2023-04-24T06:33:20;29.85;;;12.90;;
20026;SDS011;10174;42.688;23.344;2023-04-24T06:35:46;30.08;;;12.65;;
20026;SDS011;10174;42.688;23.344;2023-04-24T06:38:11;28.90;;;13.43;;
20026;SDS011;10174;42.688;23.344;2023-04-24T06:40:37;23.63;;;13.25;;
20026;SDS011;10174;42.688;23.344;2023-04-24T06:43:02;22.35;;;12.52;;
20026;SDS011;10174;42.688;23.344;2023-04-24T06:45:28;55.88;;;14.68;;
20026;SDS011;10174;42.688;23.344;2023-04-24T06:47:54;43.40;;;13.07;;
20026;SDS011;10174;42.688;23.344;2023-04-24T06:50:20;31.85;;;13.30;;
20026;SDS011;10174;42.688;23.344;2023-04-24T06:52:46;28.20;;;12.55;;
20026;SDS011;10174;42.688;23.344;2023-04-24T06:55:11;29.02;;;12.70;;
20026;SDS011;10174;42.688;23.344;2023-04-24T06:57:37;34.08;;;12.25;;
20026;SDS011;10174;42.688;23.344;2023-04-24T07:00:03;29.00;;;13.80;;
20026;SDS011;10174;42.688;23.344;2023-04-24T07:02:31;29.17;;;13.35;;
20026;SDS011;10174;42.688;23.344;2023-04-24T07:04:56;24.52;;;13.50;;
20026;SDS011;10174;42.688;23.344;2023-04-24T07:07:22;30.48;;;12.50;;
20026;SDS011;10174;42.688;23.344;2023-04-24T07:09:48;23.45;;;11.73;;
20026;SDS011;10174;42.688;23.344;2023-04-24T07:12:15;24.35;;;12.55;;
20026;SDS011;10174;42.688;23.344;2023-04-24T07:14:42;27.33;;;11.98;;
20026;SDS011;10174;42.688;23.344;2023-04-24T07:17:07;20.98;;;12.05;;
20026;SDS011;10174;42.688;23.344;2023-04-24T07:19:33;27.80;;;12.30;;
20026;SDS011;10174;42.688;23.344;2023-04-24T07:22:00;27.33;;;13.38;;
20026;SDS011;10174;42.688;23.344;2023-04-24T07:24:26;37.40;;;17.40;;
20026;SDS011;10174;42.688;23.344;2023-04-24T07:26:51;23.42;;;11.98;;
20026;SDS011;10174;42.688;23.344;2023-04-24T07:29:20;26.30;;;12.60;;
20026;SDS011;10174;42.688;23.344;2023-04-24T07:31:46;34.85;;;13.13;;
20026;SDS011;10174;42.688;23.344;2023-04-24T07:34:12;24.90;;;12.50;;
20026;SDS011;10174;42.688;23.344;2023-04-24T07:36:37;33.33;;;14.02;;
20026;SDS011;10174;42.688;23.344;2023-04-24T07:39:06;29.90;;;12.93;;
20026;SDS011;10174;42.688;23.344;2023-04-24T07:41:31;31.75;;;14.35;;
20026;SDS011;10174;42.688;23.344;2023-04-24T07:43:57;33.33;;;13.13;;
20026;SDS011;10174;42.688;23.344;2023-04-24T07:46:23;29.95;;;14.48;;
20026;SDS011;10174;42.688;23.344;2023-04-24T07:48:49;30.67;;;14.77;;
20026;SDS011;10174;42.688;23.344;2023-04-24T07:51:15;47.50;;;15.10;;
20026;SDS011;10174;42.688;23.344;2023-04-24T07:53:41;23.83;;;12.05;;
20026;SDS011;10174;42.688;23.344;2023-04-24T07:56:07;24.13;;;11.18;;
20026;SDS011;10174;42.688;23.344;2023-04-24T07:58:33;22.58;;;11.45;;
20026;SDS011;10174;42.688;23.344;2023-04-24T08:00:59;20.80;;;10.63;;
20026;SDS011;10174;42.688;23.344;2023-04-24T08:03:24;23.17;;;12.68;;
20026;SDS011;10174;42.688;23.344;2023-04-24T08:05:50;52.85;;;27.98;;
20026;SDS011;10174;42.688;23.344;2023-04-24T08:08:16;17.42;;;10.02;;
20026;SDS011;10174;42.688;23.344;2023-04-24T08:10:41;25.15;;;9.15;;
20026;SDS011;10174;42.688;23.344;2023-04-24T08:13:07;20.73;;;9.57;;
20026;SDS011;10174;42.688;23.344;2023-04-24T08:15:32;18.08;;;11.32;;
20026;SDS011;10174;42.688;23.344;2023-04-24T08:17:58;15.65;;;7.97;;
20026;SDS011;10174;42.688;23.344;2023-04-24T08:20:23;21.17;;;8.95;;
20026;SDS011;10174;42.688;23.344;2023-04-24T08:22:49;18.52;;;8.30;;
20026;SDS011;10174;42.688;23.344;2023-04-24T08:25:14;19.58;;;8.35;;
20026;SDS011;10174;42.688;23.344;2023-04-24T08:27:40;24.15;;;8.68;;
20026;SDS011;10174;42.688;23.344;2023-04-24T08:30:06;17.23;;;7.30;;
20026;SDS011;10174;42.688;23.344;2023-04-24T08:32:32;11.13;;;6.50;;
20026;SDS011;10174;42.688;23.344;2023-04-24T08:34:58;16.60;;;6.95;;
20026;SDS011;10174;42.688;23.344;2023-04-24T08:37:23;21.83;;;11.85;;
20026;SDS011;10174;42.688;23.344;2023-04-24T08:39:50;25.13;;;8.05;;
20026;SDS011;10174;42.688;23.344;2023-04-24T08:42:19;13.55;;;7.45;;
20026;SDS011;10174;42.688;23.344;2023-04-24T08:44:46;22.42;;;7.95;;
20026;SDS011;10174;42.688;23.344;2023-04-24T08:47:13;17.73;;;6.57;;
20026;SDS011;10174;42.688;23.344;2023-04-24T08:49:40;10.93;;;7.00;;
20026;SDS011;10174;42.688;23.344;2023-04-24T08:52:05;18.83;;;7.28;;
20026;SDS011;10174;42.688;23.344;2023-04-24T08:54:31;24.45;;;7.72;;
20026;SDS011;10174;42.688;23.344;2023-04-24T08:56:59;15.77;;;6.75;;
20026;SDS011;10174;42.688;23.344;2023-04-24T08:59:31;16.92;;;6.72;;
20026;SDS011;10174;42.688;23.344;2023-04-24T09:01:57;11.15;;;6.70;;
20026;SDS011;10174;42.688;23.344;2023-04-24T09:04:23;11.82;;;6.18;;
20026;SDS011;10174;42.688;23.344;2023-04-24T09:06:58;13.95;;;6.70;;
20026;SDS011;10174;42.688;23.344;2023-04-24T09:09:25;10.52;;;6.20;;
20026;SDS011;10174;42.688;23.344;2023-04-24T09:11:51;13.45;;;5.97;;
20026;SDS011;10174;42.688;23.344;2023-04-24T09:14:19;15.75;;;6.22;;
20026;SDS011;10174;42.688;23.344;2023-04-24T09:16:45;12.10;;;6.32;;
20026;SDS011;10174;42.688;23.344;2023-04-24T09:19:11;16.58;;;7.05;;
20026;SDS011;10174;42.688;23.344;2023-04-24T09:21:37;14.45;;;6.13;;
20026;SDS011;10174;42.688;23.344;2023-04-24T09:24:07;17.35;;;6.63;;
20026;SDS011;10174;42.688;23.344;2023-04-24T09:26:39;15.25;;;6.35;;
20026;SDS011;10174;42.688;23.344;2023-04-24T09:29:05;13.90;;;6.53;;
20026;SDS011;10174;42.688;23.344;2023-04-24T09:31:30;13.45;;;6.90;;
20026;SDS011;10174;42.688;23.344;2023-04-24T09:36:30;16.48;;;7.85;;
20026;SDS011;10174;42.688;23.344;2023-04-24T09:39:02;15.07;;;7.88;;
20026;SDS011;10174;42.688;23.344;2023-04-24T09:41:31;18.50;;;6.57;;
20026;SDS011;10174;42.688;23.344;2023-04-24T09:43:58;14.32;;;6.10;;
20026;SDS011;10174;42.688;23.344;2023-04-24T09:46:37;16.58;;;7.30;;
20026;SDS011;10174;42.688;23.344;2023-04-24T09:49:12;13.15;;;5.97;;
20026;SDS011;10174;42.688;23.344;2023-04-24T09:51:40;19.38;;;7.22;;
20026;SDS011;10174;42.688;23.344;2023-04-24T09:54:16;19.52;;;6.63;;
20026;SDS011;10174;42.688;23.344;2023-04-24T09:56:46;16.10;;;6.00;;
20026;SDS011;10174;42.688;23.344;2023-04-24T09:59:14;13.35;;;5.30;;
20026;SDS011;10174;42.688;23.344;2023-04-24T10:01:41;13.88;;;6.07;;
20026;SDS011;10174;42.688;23.344;2023-04-24T10:04:17;21.27;;;11.70;;
20026;SDS011;10174;42.688;23.344;2023-04-24T10:06:44;12.75;;;6.60;;
20026;SDS011;10174;42.688;23.344;2023-04-24T10:09:10;13.63;;;6.70;;
20026;SDS011;10174;42.688;23.344;2023-04-24T10:11:37;20.20;;;7.18;;
20026;SDS011;10174;42.688;23.344;2023-04-24T10:14:08;18.10;;;9.98;;
20026;SDS011;10174;42.688;23.344;2023-04-24T10:16:35;16.35;;;8.38;;
20026;SDS011;10174;42.688;23.344;2023-04-24T10:19:02;16.38;;;7.80;;
20026;SDS011;10174;42.688;23.344;2023-04-24T10:21:28;19.45;;;7.28;;
20026;SDS011;10174;42.688;23.344;2023-04-24T10:23:54;20.52;;;10.32;;
20026;SDS011;10174;42.688;23.344;2023-04-24T10:26:20;14.18;;;5.18;;
20026;SDS011;10174;42.688;23.344;2023-04-24T10:28:47;13.45;;;5.97;;
20026;SDS011;10174;42.688;23.344;2023-04-24T10:31:13;53.05;;;7.85;;
20026;SDS011;10174;42.688;23.344;2023-04-24T10:33:40;15.43;;;5.05;;
20026;SDS011;10174;42.688;23.344;2023-04-24T10:36:08;12.65;;;4.93;;
20026;SDS011;10174;42.688;23.344;2023-04-24T10:38:35;17.25;;;6.07;;
20026;SDS011;10174;42.688;23.344;2023-04-24T10:41:11;15.18;;;5.63;;
20026;SDS011;10174;42.688;23.344;2023-04-24T10:43:44;18.55;;;11.68;;
20026;SDS011;10174;42.688;23.344;2023-04-24T10:46:10;11.55;;;6.78;;
20026;SDS011;10174;42.688;23.344;2023-04-24T10:48:35;15.82;;;7.38;;
20026;SDS011;10174;42.688;23.344;2023-04-24T10:51:10;47.22;;;8.23;;
20026;SDS011;10174;42.688;23.344;2023-04-24T10:53:38;20.67;;;6.05;;
20026;SDS011;10174;42.688;23.344;2023-04-24T10:56:07;15.82;;;6.63;;
20026;SDS011;10174;42.688;23.344;2023-04-24T10:58:38;13.77;;;6.13;;
20026;SDS011;10174;42.688;23.344;2023-04-24T11:01:29;14.80;;;6.82;;
20026;SDS011;10174;42.688;23.344;2023-04-24T11:03:58;13.90;;;5.70;;
20026;SDS011;10174;42.688;23.344;2023-04-24T11:06:43;9.93;;;4.97;;
20026;SDS011;10174;42.688;23.344;2023-04-24T11:09:08;13.68;;;5.60;;
20026;SDS011;10174;42.688;23.344;2023-04-24T11:11:38;14.13;;;5.80;;
20026;SDS011;10174;42.688;23.344;2023-04-24T11:14:09;17.98;;;6.00;;
20026;SDS011;10174;42.688;23.344;2023-04-24T11:16:38;11.80;;;5.72;;
20026;SDS011;10174;42.688;23.344;2023-04-24T11:21:46;12.45;;;6.95;;
20026;SDS011;10174;42.688;23.344;2023-04-24T11:29:38;25.15;;;5.95;;
20026;SDS011;10174;42.688;23.344;2023-04-24T11:32:24;19.77;;;7.90;;
20026;SDS011;10174;42.688;23.344;2023-04-24T11:34:55;16.27;;;8.10;;
20026;SDS011;10174;42.688;23.344;2023-04-24T11:37:36;17.83;;;8.57;;
20026;SDS011;10174;42.688;23.344;2023-04-24T11:40:03;14.35;;;7.32;;
20026;SDS011;10174;42.688;23.344;2023-04-24T11:42:33;22.10;;;8.50;;
20026;SDS011;10174;42.688;23.344;2023-04-24T11:45:02;20.33;;;9.73;;
20026;SDS011;10174;42.688;23.344;2023-04-24T11:47:33;11.25;;;6.47;;
20026;SDS011;10174;42.688;23.344;2023-04-24T11:49:58;11.80;;;5.60;;
20026;SDS011;10174;42.688;23.344;2023-04-24T11:52:25;10.90;;;6.47;;
20026;SDS011;10174;42.688;23.344;2023-04-24T11:54:51;35.85;;;20.23;;
20026;SDS011;10174;42.688;23.344;2023-04-24T11:57:18;13.40;;;6.15;;
20026;SDS011;10174;42.688;23.344;2023-04-24T11:59:45;8.35;;;5.68;;
20026;SDS011;10174;42.688;23.344;2023-04-24T12:02:24;7.60;;;5.28;;
20026;SDS011;10174;42.688;23.344;2023-04-24T12:04:51;10.00;;;5.22;;
20026;SDS011;10174;42.688;23.344;2023-04-24T12:07:18;12.20;;;5.53;;
20026;SDS011;10174;42.688;23.344;2023-04-24T12:09:47;6.88;;;4.50;;
20026;SDS011;10174;42.688;23.344;2023-04-24T12:12:15;8.07;;;5.35;;
20026;SDS011;10174;42.688;23.344;2023-04-24T12:14:48;14.68;;;8.15;;
20026;SDS011;10174;42.688;23.344;2023-04-24T12:17:17;11.65;;;6.10;;
20026;SDS011;10174;42.688;23.344;2023-04-24T12:19:46;31.02;;;6.60;;
20026;SDS011;10174;42.688;23.344;2023-04-24T12:22:13;35.97;;;7.35;;
20026;SDS011;10174;42.688;23.344;2023-04-24T12:27:33;11.32;;;4.43;;
20026;SDS011;10174;42.688;23.344;2023-04-24T12:29:59;13.65;;;5.07;;
20026;SDS011;10174;42.688;23.344;2023-04-24T12:32:25;11.32;;;4.80;;
20026;SDS011;10174;42.688;23.344;2023-04-24T12:34:54;8.73;;;4.63;;
20026;SDS011;10174;42.688;23.344;2023-04-24T12:37:22;9.57;;;5.25;;
20026;SDS011;10174;42.688;23.344;2023-04-24T12:39:58;17.40;;;5.72;;
20026;SDS011;10174;42.688;23.344;2023-04-24T12:42:28;6.57;;;4.07;;
20026;SDS011;10174;42.688;23.344;2023-04-24T12:44:58;7.90;;;5.05;;
20026;SDS011;10174;42.688;23.344;2023-04-24T12:47:25;15.05;;;4.18;;
20026;SDS011;10174;42.688;23.344;2023-04-24T12:49:50;11.73;;;3.85;;
20026;SDS011;10174;42.688;23.344;2023-04-24T12:52:17;5.88;;;4.03;;
20026;SDS011;10174;42.688;23.344;2023-04-24T12:54:45;4.15;;;3.38;;
20026;SDS011;10174;42.688;23.344;2023-04-24T12:57:10;10.55;;;4.40;;
20026;SDS011;10174;42.688;23.344;2023-04-24T12:59:36;9.40;;;4.90;;
20026;SDS011;10174;42.688;23.344;2023-04-24T13:02:01;8.73;;;4.53;;
20026;SDS011;10174;42.688;23.344;2023-04-24T13:04:27;16.55;;;5.00;;
20026;SDS011;10174;42.688;23.344;2023-04-24T13:06:53;11.00;;;5.60;;
20026;SDS011;10174;42.688;23.344;2023-04-24T13:09:18;16.13;;;6.10;;
20026;SDS011;10174;42.688;23.344;2023-04-24T13:11:44;11.60;;;6.15;;
20026;SDS011;10174;42.688;23.344;2023-04-24T13:14:09;24.55;;;10.63;;
20026;SDS011;10174;42.688;23.344;2023-04-24T13:16:35;10.02;;;5.55;;
20026;SDS011;10174;42.688;23.344;2023-04-24T13:19:00;12.98;;;5.55;;
20026;SDS011;10174;42.688;23.344;2023-04-24T13:21:25;11.80;;;5.70;;
20026;SDS011;10174;42.688;23.344;2023-04-24T13:23:51;10.95;;;5.53;;
20026;SDS011;10174;42.688;23.344;2023-04-24T13:26:16;13.80;;;5.32;;
20026;SDS011;10174;42.688;23.344;2023-04-24T13:28:42;16.02;;;5.82;;
20026;SDS011;10174;42.688;23.344;2023-04-24T13:31:07;16.05;;;5.88;;
20026;SDS011;10174;42.688;23.344;2023-04-24T13:33:33;14.43;;;5.60;;
20026;SDS011;10174;42.688;23.344;2023-04-24T13:35:58;10.27;;;5.55;;
20026;SDS011;10174;42.688;23.344;2023-04-24T13:38:24;12.43;;;5.78;;
20026;SDS011;10174;42.688;23.344;2023-04-24T13:40:49;14.43;;;6.03;;
20026;SDS011;10174;42.688;23.344;2023-04-24T13:43:14;7.13;;;4.70;;
20026;SDS011;10174;42.688;23.344;2023-04-24T13:45:40;12.25;;;5.05;;
20026;SDS011;10174;42.688;23.344;2023-04-24T13:48:06;10.15;;;5.25;;
20026;SDS011;10174;42.688;23.344;2023-04-24T13:50:31;13.27;;;5.90;;
20026;SDS011;10174;42.688;23.344;2023-04-24T13:52:57;11.50;;;5.25;;
20026;SDS011;10174;42.688;23.344;2023-04-24T13:55:22;8.88;;;5.50;;
20026;SDS011;10174;42.688;23.344;2023-04-24T13:57:48;10.77;;;4.95;;
20026;SDS011;10174;42.688;23.344;2023-04-24T14:00:14;9.45;;;4.95;;
20026;SDS011;10174;42.688;23.344;2023-04-24T14:02:40;17.73;;;5.72;;
20026;SDS011;10174;42.688;23.344;2023-04-24T14:05:05;14.35;;;5.80;;
20026;SDS011;10174;42.688;23.344;2023-04-24T14:07:31;10.85;;;5.70;;
20026;SDS011;10174;42.688;23.344;2023-04-24T14:09:57;11.68;;;5.88;;
20026;SDS011;10174;42.688;23.344;2023-04-24T14:12:22;8.85;;;5.38;;
20026;SDS011;10174;42.688;23.344;2023-04-24T14:14:48;10.55;;;5.50;;
20026;SDS011;10174;42.688;23.344;2023-04-24T14:17:13;9.30;;;5.50;;
20026;SDS011;10174;42.688;23.344;2023-04-24T14:19:39;10.52;;;5.45;;
20026;SDS011;10174;42.688;23.344;2023-04-24T14:22:05;9.70;;;5.28;;
20026;SDS011;10174;42.688;23.344;2023-04-24T14:24:30;12.70;;;5.22;;
20026;SDS011;10174;42.688;23.344;2023-04-24T14:26:56;15.00;;;6.05;;
20026;SDS011;10174;42.688;23.344;2023-04-24T14:29:22;10.38;;;5.20;;
20026;SDS011;10174;42.688;23.344;2023-04-24T14:31:47;7.43;;;5.00;;